This is the latest recevied weather packets stored in our database for station/object IZ3LCH-13. If no packets are shown the sender has not sent any weather packets the latest 1 day(s).
| Time | Temp. | Humidity | Pressure | Rain* | Wind** | Luminosity | Snow |
|---|---|---|---|---|---|---|---|
| 1836274677 | 16.67° C | 88% | 1024.6 hPa | 0 mm | 0.89 m/s, 11° | - | - |
| 1836274527 | 16.11° C | 88% | 1024.4 hPa | 0 mm | 0.45 m/s, 29° | - | - |
| 1836274377 | 16.67° C | 88% | 1024.4 hPa | 0 mm | 0.45 m/s, 339° | - | - |
| 1836274227 | 16.67° C | 88% | 1024.3 hPa | 0 mm | 0.45 m/s, 21° | - | - |
| 1836274077 | 16.67° C | 88% | 1024.2 hPa | 0 mm | 0.45 m/s, 323° | - | - |
| 1778022603 | 13.33° C | 86% | 1011.7 hPa | 0 mm | 1.79 m/s, 1° | - | - |
| 1778022303 | 13.33° C | 86% | 1012.1 hPa | 0 mm | 1.79 m/s, 4° | - | - |
| 1778022003 | 13.33° C | 86% | 1011.9 hPa | 0 mm | 2.24 m/s, 5° | - | - |
| 1778021703 | 13.33° C | 86% | 1012.1 hPa | 0 mm | 2.68 m/s, 2° | - | - |
| 1778021403 | 13.33° C | 86% | 1012 hPa | 0 mm | 2.68 m/s, 2° | - | - |
| 1778021103 | 13.33° C | 86% | 1012.3 hPa | 0 mm | 2.68 m/s, 3° | - | - |
| 1778020803 | 13.89° C | 86% | 1012.3 hPa | 0 mm | 2.68 m/s, 4° | - | - |
| 1778020503 | 13.89° C | 86% | 1012.3 hPa | 0 mm | 2.68 m/s, 4° | - | - |
| 1778020203 | 13.89° C | 85% | 1012.5 hPa | 0 mm | 2.68 m/s, 9° | - | - |
| 1778019903 | 13.89° C | 85% | 1012.2 hPa | 0 mm | 2.68 m/s, 14° | - | - |
| 1778019603 | 13.89° C | 85% | 1012.3 hPa | 0 mm | 2.68 m/s, 12° | - | - |
| 1778019303 | 13.89° C | 85% | 1012.4 hPa | 0 mm | 2.24 m/s, 6° | - | - |
| 1778019003 | 13.89° C | 85% | 1012.4 hPa | 0 mm | 2.24 m/s, 3° | - | - |
| 1778018703 | 13.89° C | 84% | 1012.7 hPa | 0 mm | 2.24 m/s, 5° | - | - |
| 1778018403 | 13.89° C | 84% | 1012.2 hPa | 0 mm | 1.79 m/s, 4° | - | - |
| 1778018103 | 13.89° C | 84% | 1012.6 hPa | 0 mm | 1.79 m/s, 7° | - | - |
| 1778017803 | 13.89° C | 84% | 1012.7 hPa | 0 mm | 1.79 m/s, 6° | - | - |
| 1778017503 | 13.89° C | 84% | 1012.5 hPa | 0 mm | 2.24 m/s, 360° | - | - |
| 1778017203 | 13.89° C | 83% | 1012.5 hPa | 0 mm | 2.24 m/s, 6° | - | - |
| 1778016903 | 13.89° C | 83% | 1012.6 hPa | 0 mm | 2.24 m/s, 9° | - | - |
* Rain latest hour (hover to see other rain measurements)
** Current wind speed in m/s (hover to see current wind gust speed)